sensor_id;sensor_type;location;lat;lon;timestamp;pressure;altitude;pressure_sealevel;temperature
76394;BMP180;65216;51.090;-115.352;2022-12-18T00:00:13;86700.40;;;19.92
76394;BMP180;65216;51.090;-115.352;2022-12-18T00:02:41;86691.60;;;19.90
76394;BMP180;65216;51.090;-115.352;2022-12-18T00:05:08;86692.60;;;19.90
76394;BMP180;65216;51.090;-115.352;2022-12-18T00:07:36;86679.20;;;19.90
76394;BMP180;65216;51.090;-115.352;2022-12-18T00:10:05;86697.20;;;19.90
76394;BMP180;65216;51.090;-115.352;2022-12-18T00:12:32;86682.80;;;19.90
76394;BMP180;65216;51.090;-115.352;2022-12-18T00:15:00;86703.00;;;19.90
76394;BMP180;65216;51.090;-115.352;2022-12-18T00:17:30;86694.40;;;19.90
76394;BMP180;65216;51.090;-115.352;2022-12-18T00:19:57;86690.80;;;19.90
76394;BMP180;65216;51.090;-115.352;2022-12-18T00:22:31;86688.80;;;19.90
76394;BMP180;65216;51.090;-115.352;2022-12-18T00:24:58;86696.00;;;19.90
76394;BMP180;65216;51.090;-115.352;2022-12-18T00:27:28;86699.80;;;19.90
76394;BMP180;65216;51.090;-115.352;2022-12-18T00:29:58;86692.00;;;19.90
76394;BMP180;65216;51.090;-115.352;2022-12-18T00:32:25;86705.60;;;19.90
76394;BMP180;65216;51.090;-115.352;2022-12-18T00:34:53;86702.60;;;19.90
76394;BMP180;65216;51.090;-115.352;2022-12-18T00:37:20;86702.80;;;19.90
76394;BMP180;65216;51.090;-115.352;2022-12-18T00:39:51;86708.60;;;19.90
76394;BMP180;65216;51.090;-115.352;2022-12-18T00:42:21;86710.60;;;19.90
76394;BMP180;65216;51.090;-115.352;2022-12-18T00:45:10;86708.60;;;19.90
76394;BMP180;65216;51.090;-115.352;2022-12-18T00:47:40;86704.80;;;19.90
76394;BMP180;65216;51.090;-115.352;2022-12-18T00:50:08;86715.00;;;19.88
76394;BMP180;65216;51.090;-115.352;2022-12-18T00:52:36;86712.40;;;19.90
76394;BMP180;65216;51.090;-115.352;2022-12-18T00:55:09;86699.20;;;19.86
76394;BMP180;65216;51.090;-115.352;2022-12-18T00:57:36;86703.00;;;19.86
76394;BMP180;65216;51.090;-115.352;2022-12-18T01:00:11;86705.60;;;19.86
76394;BMP180;65216;51.090;-115.352;2022-12-18T01:02:41;86704.40;;;19.80
76394;BMP180;65216;51.090;-115.352;2022-12-18T01:05:16;86703.60;;;19.80
76394;BMP180;65216;51.090;-115.352;2022-12-18T01:07:46;86701.60;;;19.80
76394;BMP180;65216;51.090;-115.352;2022-12-18T01:10:14;86699.60;;;19.80
76394;BMP180;65216;51.090;-115.352;2022-12-18T01:12:42;86706.40;;;19.80
76394;BMP180;65216;51.090;-115.352;2022-12-18T01:15:12;86709.00;;;19.80
76394;BMP180;65216;51.090;-115.352;2022-12-18T01:17:40;86697.40;;;19.80
76394;BMP180;65216;51.090;-115.352;2022-12-18T01:20:10;86707.40;;;19.80
76394;BMP180;65216;51.090;-115.352;2022-12-18T01:22:40;86701.80;;;19.80
76394;BMP180;65216;51.090;-115.352;2022-12-18T01:25:08;86711.80;;;19.80
76394;BMP180;65216;51.090;-115.352;2022-12-18T01:27:35;86708.60;;;19.80
76394;BMP180;65216;51.090;-115.352;2022-12-18T01:30:04;86715.40;;;19.80
76394;BMP180;65216;51.090;-115.352;2022-12-18T01:32:32;86707.40;;;19.76
76394;BMP180;65216;51.090;-115.352;2022-12-18T01:35:05;86699.00;;;19.70
76394;BMP180;65216;51.090;-115.352;2022-12-18T01:37:36;86712.20;;;19.70
76394;BMP180;65216;51.090;-115.352;2022-12-18T01:40:06;86708.80;;;19.70
76394;BMP180;65216;51.090;-115.352;2022-12-18T01:42:34;86715.60;;;19.70
76394;BMP180;65216;51.090;-115.352;2022-12-18T01:45:24;86709.00;;;19.70
76394;BMP180;65216;51.090;-115.352;2022-12-18T01:48:03;86710.80;;;19.70
76394;BMP180;65216;51.090;-115.352;2022-12-18T01:50:43;86710.40;;;19.70
76394;BMP180;65216;51.090;-115.352;2022-12-18T01:53:17;86710.40;;;19.70
76394;BMP180;65216;51.090;-115.352;2022-12-18T01:55:54;86719.40;;;19.68
76394;BMP180;65216;51.090;-115.352;2022-12-18T01:58:40;86717.40;;;19.70
76394;BMP180;65216;51.090;-115.352;2022-12-18T02:01:09;86712.20;;;19.66
76394;BMP180;65216;51.090;-115.352;2022-12-18T02:03:37;86725.20;;;19.70
76394;BMP180;65216;51.090;-115.352;2022-12-18T02:09:12;86731.40;;;19.68
76394;BMP180;65216;51.090;-115.352;2022-12-18T02:12:23;86732.80;;;19.70
76394;BMP180;65216;51.090;-115.352;2022-12-18T02:15:09;86725.80;;;19.70
76394;BMP180;65216;51.090;-115.352;2022-12-18T02:17:58;86739.60;;;19.70
76394;BMP180;65216;51.090;-115.352;2022-12-18T02:29:02;86747.00;;;19.70
76394;BMP180;65216;51.090;-115.352;2022-12-18T02:31:45;86751.00;;;19.68
76394;BMP180;65216;51.090;-115.352;2022-12-18T02:34:15;86756.60;;;19.70
76394;BMP180;65216;51.090;-115.352;2022-12-18T02:36:51;86746.80;;;19.70
76394;BMP180;65216;51.090;-115.352;2022-12-18T02:39:22;86749.60;;;19.70
76394;BMP180;65216;51.090;-115.352;2022-12-18T02:41:51;86751.00;;;19.70
76394;BMP180;65216;51.090;-115.352;2022-12-18T02:44:19;86751.60;;;19.70
76394;BMP180;65216;51.090;-115.352;2022-12-18T02:46:52;86759.40;;;19.70
76394;BMP180;65216;51.090;-115.352;2022-12-18T02:50:30;86763.60;;;19.68
76394;BMP180;65216;51.090;-115.352;2022-12-18T02:53:17;86756.60;;;19.64
76394;BMP180;65216;51.090;-115.352;2022-12-18T02:56:10;86771.20;;;19.62
76394;BMP180;65216;51.090;-115.352;2022-12-18T03:06:54;86769.00;;;19.64
76394;BMP180;65216;51.090;-115.352;2022-12-18T03:09:36;86765.20;;;19.60
76394;BMP180;65216;51.090;-115.352;2022-12-18T03:12:17;86765.80;;;19.60
76394;BMP180;65216;51.090;-115.352;2022-12-18T03:15:04;86756.40;;;19.60
76394;BMP180;65216;51.090;-115.352;2022-12-18T03:17:34;86776.40;;;19.60
76394;BMP180;65216;51.090;-115.352;2022-12-18T03:20:14;86774.40;;;19.60
76394;BMP180;65216;51.090;-115.352;2022-12-18T03:22:51;86770.00;;;19.60
76394;BMP180;65216;51.090;-115.352;2022-12-18T03:25:20;86779.40;;;19.60
76394;BMP180;65216;51.090;-115.352;2022-12-18T03:27:54;86777.40;;;19.60
76394;BMP180;65216;51.090;-115.352;2022-12-18T03:30:23;86781.00;;;19.60
76394;BMP180;65216;51.090;-115.352;2022-12-18T03:33:38;86781.20;;;19.60
76394;BMP180;65216;51.090;-115.352;2022-12-18T03:36:08;86784.40;;;19.60
76394;BMP180;65216;51.090;-115.352;2022-12-18T03:38:36;86790.40;;;19.60
76394;BMP180;65216;51.090;-115.352;2022-12-18T03:46:56;86792.60;;;19.52
76394;BMP180;65216;51.090;-115.352;2022-12-18T03:49:57;86782.00;;;19.50
76394;BMP180;65216;51.090;-115.352;2022-12-18T03:55:35;86784.60;;;19.50
76394;BMP180;65216;51.090;-115.352;2022-12-18T03:58:06;86783.40;;;19.50
76394;BMP180;65216;51.090;-115.352;2022-12-18T04:00:35;86787.00;;;19.50
76394;BMP180;65216;51.090;-115.352;2022-12-18T04:03:04;86788.60;;;19.50
76394;BMP180;65216;51.090;-115.352;2022-12-18T04:05:37;86779.40;;;19.50
76394;BMP180;65216;51.090;-115.352;2022-12-18T04:08:05;86792.20;;;19.50
76394;BMP180;65216;51.090;-115.352;2022-12-18T04:10:32;86790.00;;;19.40
76394;BMP180;65216;51.090;-115.352;2022-12-18T04:13:00;86789.80;;;19.40
76394;BMP180;65216;51.090;-115.352;2022-12-18T04:15:27;86790.60;;;19.40
76394;BMP180;65216;51.090;-115.352;2022-12-18T04:17:55;86793.60;;;19.40
76394;BMP180;65216;51.090;-115.352;2022-12-18T04:20:25;86795.40;;;19.40
76394;BMP180;65216;51.090;-115.352;2022-12-18T04:22:56;86794.40;;;19.40
76394;BMP180;65216;51.090;-115.352;2022-12-18T04:25:26;86796.20;;;19.40
76394;BMP180;65216;51.090;-115.352;2022-12-18T04:27:56;86804.40;;;19.40
76394;BMP180;65216;51.090;-115.352;2022-12-18T04:30:24;86802.00;;;19.32
76394;BMP180;65216;51.090;-115.352;2022-12-18T04:32:54;86805.80;;;19.30
76394;BMP180;65216;51.090;-115.352;2022-12-18T04:35:22;86804.60;;;19.30
76394;BMP180;65216;51.090;-115.352;2022-12-18T04:37:49;86805.00;;;19.30
76394;BMP180;65216;51.090;-115.352;2022-12-18T04:40:25;86797.80;;;19.30
76394;BMP180;65216;51.090;-115.352;2022-12-18T04:42:52;86802.20;;;19.30
76394;BMP180;65216;51.090;-115.352;2022-12-18T04:45:23;86793.80;;;19.30
76394;BMP180;65216;51.090;-115.352;2022-12-18T04:47:50;86794.60;;;19.30
76394;BMP180;65216;51.090;-115.352;2022-12-18T04:50:18;86797.40;;;19.30
76394;BMP180;65216;51.090;-115.352;2022-12-18T04:52:45;86793.60;;;19.30
76394;BMP180;65216;51.090;-115.352;2022-12-18T04:55:12;86792.00;;;19.24
76394;BMP180;65216;51.090;-115.352;2022-12-18T04:57:43;86799.20;;;19.20
76394;BMP180;65216;51.090;-115.352;2022-12-18T05:00:10;86803.20;;;19.20
76394;BMP180;65216;51.090;-115.352;2022-12-18T05:02:38;86797.20;;;19.20
76394;BMP180;65216;51.090;-115.352;2022-12-18T05:05:09;86796.80;;;19.20
76394;BMP180;65216;51.090;-115.352;2022-12-18T05:07:36;86800.20;;;19.20
76394;BMP180;65216;51.090;-115.352;2022-12-18T05:10:04;86804.40;;;19.20
76394;BMP180;65216;51.090;-115.352;2022-12-18T05:12:32;86806.60;;;19.20
76394;BMP180;65216;51.090;-115.352;2022-12-18T05:15:19;86800.60;;;19.20
76394;BMP180;65216;51.090;-115.352;2022-12-18T05:17:46;86800.60;;;19.20
76394;BMP180;65216;51.090;-115.352;2022-12-18T05:20:14;86805.40;;;19.20
76394;BMP180;65216;51.090;-115.352;2022-12-18T05:22:41;86794.60;;;19.20
76394;BMP180;65216;51.090;-115.352;2022-12-18T05:25:09;86798.60;;;19.20
76394;BMP180;65216;51.090;-115.352;2022-12-18T05:27:40;86799.20;;;19.20
76394;BMP180;65216;51.090;-115.352;2022-12-18T05:30:08;86792.20;;;19.20
76394;BMP180;65216;51.090;-115.352;2022-12-18T05:32:36;86799.20;;;19.20
76394;BMP180;65216;51.090;-115.352;2022-12-18T05:35:05;86799.40;;;19.20
76394;BMP180;65216;51.090;-115.352;2022-12-18T05:37:33;86806.60;;;19.20
76394;BMP180;65216;51.090;-115.352;2022-12-18T05:40:05;86801.60;;;19.14
76394;BMP180;65216;51.090;-115.352;2022-12-18T05:42:33;86806.40;;;19.12
76394;BMP180;65216;51.090;-115.352;2022-12-18T05:45:00;86802.20;;;19.12
76394;BMP180;65216;51.090;-115.352;2022-12-18T05:47:28;86806.40;;;19.10
76394;BMP180;65216;51.090;-115.352;2022-12-18T05:49:56;86803.60;;;19.10
76394;BMP180;65216;51.090;-115.352;2022-12-18T05:52:26;86805.60;;;19.10
76394;BMP180;65216;51.090;-115.352;2022-12-18T05:54:53;86806.60;;;19.10
76394;BMP180;65216;51.090;-115.352;2022-12-18T05:57:25;86803.20;;;19.10
76394;BMP180;65216;51.090;-115.352;2022-12-18T05:59:52;86809.80;;;19.10
76394;BMP180;65216;51.090;-115.352;2022-12-18T06:02:23;86812.80;;;19.10
76394;BMP180;65216;51.090;-115.352;2022-12-18T06:04:50;86814.20;;;19.10
76394;BMP180;65216;51.090;-115.352;2022-12-18T06:07:20;86815.80;;;19.10
76394;BMP180;65216;51.090;-115.352;2022-12-18T06:09:48;86814.20;;;19.10
76394;BMP180;65216;51.090;-115.352;2022-12-18T06:12:18;86822.60;;;19.10
76394;BMP180;65216;51.090;-115.352;2022-12-18T06:14:48;86824.80;;;19.10
76394;BMP180;65216;51.090;-115.352;2022-12-18T06:17:18;86825.40;;;19.10
76394;BMP180;65216;51.090;-115.352;2022-12-18T06:19:48;86824.80;;;19.10
76394;BMP180;65216;51.090;-115.352;2022-12-18T06:22:16;86829.20;;;19.10
76394;BMP180;65216;51.090;-115.352;2022-12-18T06:24:43;86829.20;;;19.10
76394;BMP180;65216;51.090;-115.352;2022-12-18T06:27:11;86827.00;;;19.10
76394;BMP180;65216;51.090;-115.352;2022-12-18T06:29:38;86823.20;;;19.10
76394;BMP180;65216;51.090;-115.352;2022-12-18T06:32:06;86825.00;;;19.10
76394;BMP180;65216;51.090;-115.352;2022-12-18T06:34:34;86826.00;;;19.10
76394;BMP180;65216;51.090;-115.352;2022-12-18T06:37:06;86826.80;;;19.10
76394;BMP180;65216;51.090;-115.352;2022-12-18T06:39:33;86837.40;;;19.10
76394;BMP180;65216;51.090;-115.352;2022-12-18T06:42:04;86834.00;;;19.08
76394;BMP180;65216;51.090;-115.352;2022-12-18T06:44:32;86832.20;;;19.06
76394;BMP180;65216;51.090;-115.352;2022-12-18T06:46:59;86841.00;;;19.04
76394;BMP180;65216;51.090;-115.352;2022-12-18T06:49:27;86841.60;;;19.02
76394;BMP180;65216;51.090;-115.352;2022-12-18T06:51:54;86842.80;;;19.00
76394;BMP180;65216;51.090;-115.352;2022-12-18T06:54:24;86841.00;;;19.00
76394;BMP180;65216;51.090;-115.352;2022-12-18T06:56:55;86839.40;;;19.00
76394;BMP180;65216;51.090;-115.352;2022-12-18T06:59:25;86842.40;;;19.00
76394;BMP180;65216;51.090;-115.352;2022-12-18T07:01:55;86839.80;;;19.00
76394;BMP180;65216;51.090;-115.352;2022-12-18T07:04:28;86837.80;;;19.02
76394;BMP180;65216;51.090;-115.352;2022-12-18T07:06:56;86843.60;;;19.00
76394;BMP180;65216;51.090;-115.352;2022-12-18T07:09:24;86836.80;;;19.00
76394;BMP180;65216;51.090;-115.352;2022-12-18T07:11:52;86840.20;;;19.00
76394;BMP180;65216;51.090;-115.352;2022-12-18T07:14:22;86839.80;;;19.00
76394;BMP180;65216;51.090;-115.352;2022-12-18T07:16:49;86838.20;;;19.00
76394;BMP180;65216;51.090;-115.352;2022-12-18T07:19:17;86849.60;;;19.00
76394;BMP180;65216;51.090;-115.352;2022-12-18T07:21:47;86847.40;;;19.00
76394;BMP180;65216;51.090;-115.352;2022-12-18T07:24:16;86853.60;;;19.00
76394;BMP180;65216;51.090;-115.352;2022-12-18T07:26:46;86859.40;;;19.00
76394;BMP180;65216;51.090;-115.352;2022-12-18T07:29:16;86850.60;;;19.00
76394;BMP180;65216;51.090;-115.352;2022-12-18T07:31:44;86859.60;;;19.00
76394;BMP180;65216;51.090;-115.352;2022-12-18T07:34:15;86856.40;;;19.00
76394;BMP180;65216;51.090;-115.352;2022-12-18T07:36:43;86864.00;;;19.00
76394;BMP180;65216;51.090;-115.352;2022-12-18T07:39:14;86858.40;;;19.00
76394;BMP180;65216;51.090;-115.352;2022-12-18T07:41:41;86856.60;;;19.00
76394;BMP180;65216;51.090;-115.352;2022-12-18T07:44:28;86857.00;;;19.00
76394;BMP180;65216;51.090;-115.352;2022-12-18T07:46:59;86859.20;;;19.00
76394;BMP180;65216;51.090;-115.352;2022-12-18T07:49:27;86859.40;;;19.00
76394;BMP180;65216;51.090;-115.352;2022-12-18T07:51:58;86865.80;;;19.00
76394;BMP180;65216;51.090;-115.352;2022-12-18T07:54:26;86864.80;;;19.00
76394;BMP180;65216;51.090;-115.352;2022-12-18T07:56:53;86864.20;;;19.00
76394;BMP180;65216;51.090;-115.352;2022-12-18T07:59:21;86866.80;;;19.00
76394;BMP180;65216;51.090;-115.352;2022-12-18T08:01:48;86863.80;;;19.00
76394;BMP180;65216;51.090;-115.352;2022-12-18T08:04:15;86863.60;;;19.06
76394;BMP180;65216;51.090;-115.352;2022-12-18T08:06:43;86866.20;;;19.02
76394;BMP180;65216;51.090;-115.352;2022-12-18T08:09:11;86870.20;;;19.06
76394;BMP180;65216;51.090;-115.352;2022-12-18T08:11:41;86864.80;;;19.04
76394;BMP180;65216;51.090;-115.352;2022-12-18T08:14:11;86865.00;;;19.02
76394;BMP180;65216;51.090;-115.352;2022-12-18T08:16:38;86861.00;;;19.00
76394;BMP180;65216;51.090;-115.352;2022-12-18T08:19:06;86864.20;;;19.02
76394;BMP180;65216;51.090;-115.352;2022-12-18T08:21:34;86866.20;;;19.00
76394;BMP180;65216;51.090;-115.352;2022-12-18T08:24:02;86865.60;;;19.00
76394;BMP180;65216;51.090;-115.352;2022-12-18T08:26:31;86864.60;;;19.00
76394;BMP180;65216;51.090;-115.352;2022-12-18T08:29:00;86866.40;;;19.00
76394;BMP180;65216;51.090;-115.352;2022-12-18T08:31:29;86863.20;;;19.00
76394;BMP180;65216;51.090;-115.352;2022-12-18T08:33:59;86862.60;;;19.00
76394;BMP180;65216;51.090;-115.352;2022-12-18T08:36:27;86864.40;;;19.00
76394;BMP180;65216;51.090;-115.352;2022-12-18T08:38:55;86863.20;;;19.00
76394;BMP180;65216;51.090;-115.352;2022-12-18T08:41:25;86867.20;;;19.00
76394;BMP180;65216;51.090;-115.352;2022-12-18T08:43:56;86867.00;;;19.00
76394;BMP180;65216;51.090;-115.352;2022-12-18T08:46:43;86864.80;;;18.98
76394;BMP180;65216;51.090;-115.352;2022-12-18T08:49:16;86864.40;;;18.90
76394;BMP180;65216;51.090;-115.352;2022-12-18T08:51:43;86869.20;;;18.92
76394;BMP180;65216;51.090;-115.352;2022-12-18T08:54:13;86866.20;;;18.90
76394;BMP180;65216;51.090;-115.352;2022-12-18T08:56:41;86861.60;;;18.90
76394;BMP180;65216;51.090;-115.352;2022-12-18T08:59:09;86865.60;;;18.90
76394;BMP180;65216;51.090;-115.352;2022-12-18T09:01:39;86865.40;;;18.90
76394;BMP180;65216;51.090;-115.352;2022-12-18T09:04:08;86862.80;;;18.90
76394;BMP180;65216;51.090;-115.352;2022-12-18T09:06:39;86868.60;;;18.90
76394;BMP180;65216;51.090;-115.352;2022-12-18T09:09:14;86875.20;;;18.90
76394;BMP180;65216;51.090;-115.352;2022-12-18T09:11:41;86875.60;;;18.90
76394;BMP180;65216;51.090;-115.352;2022-12-18T09:14:13;86880.60;;;18.90
76394;BMP180;65216;51.090;-115.352;2022-12-18T09:16:43;86883.60;;;18.90
76394;BMP180;65216;51.090;-115.352;2022-12-18T09:19:12;86888.40;;;18.90
76394;BMP180;65216;51.090;-115.352;2022-12-18T09:21:40;86892.00;;;18.90
76394;BMP180;65216;51.090;-115.352;2022-12-18T09:24:13;86893.20;;;18.90
76394;BMP180;65216;51.090;-115.352;2022-12-18T09:26:44;86898.60;;;18.88
76394;BMP180;65216;51.090;-115.352;2022-12-18T09:29:11;86894.80;;;18.86
76394;BMP180;65216;51.090;-115.352;2022-12-18T09:31:39;86892.60;;;18.90
76394;BMP180;65216;51.090;-115.352;2022-12-18T09:34:09;86897.40;;;18.86
76394;BMP180;65216;51.090;-115.352;2022-12-18T09:36:38;86895.20;;;18.86
76394;BMP180;65216;51.090;-115.352;2022-12-18T09:39:06;86898.40;;;18.84
76394;BMP180;65216;51.090;-115.352;2022-12-18T09:42:00;86898.40;;;18.82
76394;BMP180;65216;51.090;-115.352;2022-12-18T09:44:44;86903.80;;;18.82
76394;BMP180;65216;51.090;-115.352;2022-12-18T09:47:54;86905.40;;;18.80
76394;BMP180;65216;51.090;-115.352;2022-12-18T09:50:33;86908.60;;;18.80
76394;BMP180;65216;51.090;-115.352;2022-12-18T09:53:12;86906.00;;;18.80
76394;BMP180;65216;51.090;-115.352;2022-12-18T09:55:47;86911.20;;;18.80
76394;BMP180;65216;51.090;-115.352;2022-12-18T09:58:51;86917.40;;;18.80
76394;BMP180;65216;51.090;-115.352;2022-12-18T10:01:23;86914.00;;;18.80
76394;BMP180;65216;51.090;-115.352;2022-12-18T10:03:52;86915.40;;;18.80
76394;BMP180;65216;51.090;-115.352;2022-12-18T10:06:39;86915.00;;;18.80
76394;BMP180;65216;51.090;-115.352;2022-12-18T10:12:08;86920.80;;;18.80
76394;BMP180;65216;51.090;-115.352;2022-12-18T10:18:06;86921.80;;;18.80
76394;BMP180;65216;51.090;-115.352;2022-12-18T10:20:48;86927.40;;;18.80
76394;BMP180;65216;51.090;-115.352;2022-12-18T10:23:35;86928.60;;;18.80
76394;BMP180;65216;51.090;-115.352;2022-12-18T10:26:11;86933.60;;;18.80
76394;BMP180;65216;51.090;-115.352;2022-12-18T10:28:43;86934.20;;;18.80
76394;BMP180;65216;51.090;-115.352;2022-12-18T10:31:23;86932.20;;;18.80
76394;BMP180;65216;51.090;-115.352;2022-12-18T10:33:51;86940.00;;;18.80
76394;BMP180;65216;51.090;-115.352;2022-12-18T10:36:23;86942.00;;;18.80
76394;BMP180;65216;51.090;-115.352;2022-12-18T10:38:50;86941.20;;;18.80
76394;BMP180;65216;51.090;-115.352;2022-12-18T10:44:23;86940.00;;;18.80
76394;BMP180;65216;51.090;-115.352;2022-12-18T10:47:04;86937.20;;;18.80
76394;BMP180;65216;51.090;-115.352;2022-12-18T10:49:35;86934.20;;;18.80
76394;BMP180;65216;51.090;-115.352;2022-12-18T10:52:20;86928.80;;;18.80
76394;BMP180;65216;51.090;-115.352;2022-12-18T10:55:03;86935.60;;;18.80
76394;BMP180;65216;51.090;-115.352;2022-12-18T10:57:40;86942.20;;;18.80
76394;BMP180;65216;51.090;-115.352;2022-12-18T11:00:26;86941.00;;;18.80
76394;BMP180;65216;51.090;-115.352;2022-12-18T11:02:54;86941.60;;;18.80
76394;BMP180;65216;51.090;-115.352;2022-12-18T11:05:32;86948.20;;;18.80
76394;BMP180;65216;51.090;-115.352;2022-12-18T11:08:03;86947.00;;;18.80
76394;BMP180;65216;51.090;-115.352;2022-12-18T11:10:38;86943.20;;;18.80
76394;BMP180;65216;51.090;-115.352;2022-12-18T11:13:23;86943.80;;;18.80
76394;BMP180;65216;51.090;-115.352;2022-12-18T11:15:51;86938.40;;;18.80
76394;BMP180;65216;51.090;-115.352;2022-12-18T11:18:33;86932.00;;;18.80
76394;BMP180;65216;51.090;-115.352;2022-12-18T11:21:09;86927.40;;;18.80
76394;BMP180;65216;51.090;-115.352;2022-12-18T11:23:53;86923.40;;;18.70
76394;BMP180;65216;51.090;-115.352;2022-12-18T11:26:21;86925.00;;;18.70
76394;BMP180;65216;51.090;-115.352;2022-12-18T11:29:18;86930.00;;;18.70
76394;BMP180;65216;51.090;-115.352;2022-12-18T11:31:48;86928.00;;;18.70
76394;BMP180;65216;51.090;-115.352;2022-12-18T11:34:29;86926.00;;;18.70
76394;BMP180;65216;51.090;-115.352;2022-12-18T11:37:00;86923.60;;;18.68
76394;BMP180;65216;51.090;-115.352;2022-12-18T11:39:53;86925.20;;;18.60
76394;BMP180;65216;51.090;-115.352;2022-12-18T11:42:37;86923.00;;;18.60
76394;BMP180;65216;51.090;-115.352;2022-12-18T11:47:54;86921.80;;;18.60
76394;BMP180;65216;51.090;-115.352;2022-12-18T11:52:58;86924.80;;;18.60
76394;BMP180;65216;51.090;-115.352;2022-12-18T11:58:42;86933.40;;;18.50
76394;BMP180;65216;51.090;-115.352;2022-12-18T12:04:27;86935.80;;;18.50
76394;BMP180;65216;51.090;-115.352;2022-12-18T12:07:18;86934.20;;;18.50
76394;BMP180;65216;51.090;-115.352;2022-12-18T12:25:44;86917.40;;;18.40
76394;BMP180;65216;51.090;-115.352;2022-12-18T12:39:54;86915.80;;;18.40
76394;BMP180;65216;51.090;-115.352;2022-12-18T12:42:38;86927.20;;;18.38
76394;BMP180;65216;51.090;-115.352;2022-12-18T12:51:30;86931.60;;;18.30
76394;BMP180;65216;51.090;-115.352;2022-12-18T12:54:02;86922.00;;;18.30
76394;BMP180;65216;51.090;-115.352;2022-12-18T12:56:54;86925.40;;;18.30
76394;BMP180;65216;51.090;-115.352;2022-12-18T13:00:21;86922.80;;;18.30
76394;BMP180;65216;51.090;-115.352;2022-12-18T13:06:04;86932.60;;;18.30
76394;BMP180;65216;51.090;-115.352;2022-12-18T13:08:55;86928.40;;;18.30
76394;BMP180;65216;51.090;-115.352;2022-12-18T13:11:45;86930.20;;;18.30
76394;BMP180;65216;51.090;-115.352;2022-12-18T13:14:38;86926.40;;;18.30
76394;BMP180;65216;51.090;-115.352;2022-12-18T13:17:28;86931.00;;;18.30
76394;BMP180;65216;51.090;-115.352;2022-12-18T13:20:12;86920.20;;;18.30
76394;BMP180;65216;51.090;-115.352;2022-12-18T13:22:46;86931.20;;;18.30
76394;BMP180;65216;51.090;-115.352;2022-12-18T13:25:36;86930.40;;;18.30
76394;BMP180;65216;51.090;-115.352;2022-12-18T13:28:14;86928.00;;;18.30
76394;BMP180;65216;51.090;-115.352;2022-12-18T13:30:56;86930.60;;;18.30
76394;BMP180;65216;51.090;-115.352;2022-12-18T13:36:23;86933.40;;;18.30
76394;BMP180;65216;51.090;-115.352;2022-12-18T13:45:02;86932.20;;;18.20
76394;BMP180;65216;51.090;-115.352;2022-12-18T13:47:50;86926.20;;;18.20
76394;BMP180;65216;51.090;-115.352;2022-12-18T13:50:25;86933.60;;;18.20
76394;BMP180;65216;51.090;-115.352;2022-12-18T13:52:54;86933.20;;;18.20
76394;BMP180;65216;51.090;-115.352;2022-12-18T13:55:24;86932.20;;;18.20
76394;BMP180;65216;51.090;-115.352;2022-12-18T13:58:05;86928.60;;;18.20
76394;BMP180;65216;51.090;-115.352;2022-12-18T14:00:42;86932.80;;;18.20
76394;BMP180;65216;51.090;-115.352;2022-12-18T14:03:40;86935.80;;;18.20
76394;BMP180;65216;51.090;-115.352;2022-12-18T14:06:13;86937.40;;;18.20
76394;BMP180;65216;51.090;-115.352;2022-12-18T14:08:43;86933.20;;;18.20
76394;BMP180;65216;51.090;-115.352;2022-12-18T14:11:23;86932.00;;;18.20
76394;BMP180;65216;51.090;-115.352;2022-12-18T14:13:52;86936.60;;;18.20
76394;BMP180;65216;51.090;-115.352;2022-12-18T14:16:19;86936.80;;;18.20
76394;BMP180;65216;51.090;-115.352;2022-12-18T14:18:58;86934.40;;;18.20
76394;BMP180;65216;51.090;-115.352;2022-12-18T14:21:32;86939.20;;;18.20
76394;BMP180;65216;51.090;-115.352;2022-12-18T14:24:20;86938.60;;;18.20
76394;BMP180;65216;51.090;-115.352;2022-12-18T14:26:49;86941.20;;;18.20
76394;BMP180;65216;51.090;-115.352;2022-12-18T14:29:30;86944.20;;;18.20
76394;BMP180;65216;51.090;-115.352;2022-12-18T14:32:15;86949.60;;;18.20
76394;BMP180;65216;51.090;-115.352;2022-12-18T14:34:53;86948.60;;;18.20
76394;BMP180;65216;51.090;-115.352;2022-12-18T14:37:26;86950.40;;;18.20
76394;BMP180;65216;51.090;-115.352;2022-12-18T14:40:02;86953.00;;;18.20
76394;BMP180;65216;51.090;-115.352;2022-12-18T14:42:33;86949.20;;;18.20
76394;BMP180;65216;51.090;-115.352;2022-12-18T14:45:52;86949.60;;;18.20
76394;BMP180;65216;51.090;-115.352;2022-12-18T14:48:36;86946.40;;;18.20
76394;BMP180;65216;51.090;-115.352;2022-12-18T14:51:19;86947.80;;;18.20
76394;BMP180;65216;51.090;-115.352;2022-12-18T14:53:57;86947.20;;;18.20
76394;BMP180;65216;51.090;-115.352;2022-12-18T14:56:34;86949.80;;;18.20
76394;BMP180;65216;51.090;-115.352;2022-12-18T14:59:19;86953.80;;;18.20
76394;BMP180;65216;51.090;-115.352;2022-12-18T15:02:15;86948.40;;;18.20
76394;BMP180;65216;51.090;-115.352;2022-12-18T15:05:14;86945.80;;;18.20
76394;BMP180;65216;51.090;-115.352;2022-12-18T15:07:52;86945.80;;;18.20
76394;BMP180;65216;51.090;-115.352;2022-12-18T15:10:32;86945.40;;;18.20
76394;BMP180;65216;51.090;-115.352;2022-12-18T15:23:51;86946.80;;;18.20
76394;BMP180;65216;51.090;-115.352;2022-12-18T15:26:22;86946.00;;;18.20
76394;BMP180;65216;51.090;-115.352;2022-12-18T15:28:57;86949.60;;;18.20
76394;BMP180;65216;51.090;-115.352;2022-12-18T15:31:34;86946.60;;;18.20
76394;BMP180;65216;51.090;-115.352;2022-12-18T15:34:21;86948.80;;;18.20
76394;BMP180;65216;51.090;-115.352;2022-12-18T15:36:51;86956.00;;;18.20
76394;BMP180;65216;51.090;-115.352;2022-12-18T15:39:21;86965.40;;;18.20
76394;BMP180;65216;51.090;-115.352;2022-12-18T15:41:49;86965.40;;;18.20
76394;BMP180;65216;51.090;-115.352;2022-12-18T15:44:34;86961.80;;;18.20
76394;BMP180;65216;51.090;-115.352;2022-12-18T15:47:12;86965.20;;;18.20
76394;BMP180;65216;51.090;-115.352;2022-12-18T15:49:42;86962.80;;;18.20
76394;BMP180;65216;51.090;-115.352;2022-12-18T15:52:17;86961.40;;;18.20
76394;BMP180;65216;51.090;-115.352;2022-12-18T15:54:52;86964.20;;;18.20